createdAt,value
2018-12-17T00:00:11.569Z,614.1
2018-12-17T00:01:14.014Z,614.2
2018-12-17T00:02:16.164Z,613.9
2018-12-17T00:03:18.472Z,614.2
2018-12-17T00:04:20.900Z,614.1
2018-12-17T00:05:23.339Z,614.3
2018-12-17T00:06:25.490Z,614.2
2018-12-17T00:07:27.931Z,614.4
2018-12-17T00:09:35.334Z,614.5
2018-12-17T00:10:37.498Z,614
2018-12-17T00:11:39.635Z,613.6
2018-12-17T00:12:41.788Z,613.9
2018-12-17T00:13:44.208Z,613.8
2018-12-17T00:14:46.363Z,613.7
2018-12-17T00:15:48.791Z,613.5
2018-12-17T00:16:51.212Z,613.4
2018-12-17T00:17:53.629Z,613.4
2018-12-17T00:18:55.779Z,613.6
2018-12-17T00:19:58.204Z,612.8
2018-12-17T00:21:00.623Z,612.8
2018-12-17T00:22:02.808Z,612.7
2018-12-17T00:23:04.963Z,612.5
2018-12-17T00:24:07.118Z,612.2
2018-12-17T00:25:09.556Z,611.8
2018-12-17T00:26:11.985Z,611.6
2018-12-17T00:27:14.401Z,611.5
2018-12-17T00:28:16.842Z,611.6
2018-12-17T00:29:19.259Z,611.7
2018-12-17T00:30:21.683Z,611.6
2018-12-17T00:31:23.843Z,611.5
2018-12-17T00:32:26.271Z,611.7
2018-12-17T00:33:28.698Z,611.6
2018-12-17T00:34:31.119Z,612
2018-12-17T00:35:33.542Z,611.9
2018-12-17T00:36:35.958Z,612
2018-12-17T00:37:38.125Z,611.7
2018-12-17T00:38:40.005Z,611.5
2018-12-17T00:39:42.443Z,611.2
2018-12-17T00:40:44.871Z,611.4
2018-12-17T00:41:47.009Z,611.5
2018-12-17T00:42:49.149Z,611.5
2018-12-17T00:43:51.311Z,611.5
2018-12-17T00:44:53.479Z,611.4
2018-12-17T00:45:55.644Z,611.2
2018-12-17T00:46:58.071Z,611.7
2018-12-17T00:48:00.223Z,611.6
2018-12-17T00:49:02.374Z,611.9
2018-12-17T00:50:04.529Z,612.5
2018-12-17T00:51:06.961Z,612.1
2018-12-17T00:52:09.113Z,612.4
2018-12-17T00:53:11.530Z,612.4
2018-12-17T00:54:13.410Z,612
2018-12-17T00:55:15.848Z,612.2
2018-12-17T00:56:18.273Z,612.4
2018-12-17T00:57:20.419Z,612.6
2018-12-17T00:58:22.913Z,612.8
2018-12-17T00:59:25.317Z,612.9
2018-12-17T01:00:27.747Z,613.3
2018-12-17T01:01:30.182Z,612.9
2018-12-17T01:02:32.622Z,613.1
2018-12-17T01:03:35.045Z,613.1
2018-12-17T01:04:37.493Z,613
2018-12-17T01:05:39.918Z,613.2
2018-12-17T01:06:42.341Z,612.7
2018-12-17T01:07:44.763Z,612.8
2018-12-17T01:08:46.919Z,612.8
2018-12-17T01:09:49.348Z,612.6
2018-12-17T01:10:51.243Z,612.8
2018-12-17T01:11:53.411Z,612.3
2018-12-17T01:12:55.835Z,612.2
2018-12-17T01:13:57.740Z,612.2
2018-12-17T01:14:59.891Z,612
2018-12-17T01:16:02.033Z,612
2018-12-17T01:17:03.650Z,611.8
2018-12-17T01:18:05.782Z,611.5
2018-12-17T01:19:08.205Z,611.6
2018-12-17T01:20:10.681Z,611.9
2018-12-17T01:21:13.099Z,611.9
2018-12-17T01:22:15.534Z,611.8
2018-12-17T01:23:17.989Z,611.6
2018-12-17T01:24:20.406Z,611.7
2018-12-17T01:25:22.823Z,611.5
2018-12-17T01:26:25.251Z,611.6
2018-12-17T01:27:27.380Z,611.5
2018-12-17T01:28:29.526Z,611.5
2018-12-17T01:29:31.972Z,611.5
2018-12-17T01:30:34.133Z,611.2
2018-12-17T01:31:36.560Z,611.3
2018-12-17T01:32:38.721Z,611.5
2018-12-17T01:33:40.873Z,611.3
2018-12-17T01:34:43.305Z,610.9
2018-12-17T01:35:45.465Z,610.5
2018-12-17T01:36:47.632Z,610.4
2018-12-17T01:37:49.775Z,610.3
2018-12-17T01:38:52.209Z,610.2
2018-12-17T01:39:54.362Z,609.8
2018-12-17T01:40:56.786Z,609.7
2018-12-17T01:41:59.210Z,609.9
2018-12-17T01:43:01.353Z,610
2018-12-17T01:44:03.781Z,610.1
2018-12-17T01:45:05.939Z,609.9
2018-12-17T01:46:07.563Z,610.1
2018-12-17T01:47:09.710Z,609.6
2018-12-17T01:48:12.131Z,610
2018-12-17T01:49:14.269Z,610.2
2018-12-17T01:50:16.704Z,610.1
2018-12-17T01:51:19.130Z,610.7
2018-12-17T01:52:21.002Z,610.4
2018-12-17T01:53:23.429Z,610.9
2018-12-17T01:54:25.861Z,610
2018-12-17T01:55:28.292Z,609.9
2018-12-17T01:56:30.439Z,609.9
2018-12-17T01:57:32.859Z,609.7
2018-12-17T01:58:35.283Z,610
2018-12-17T01:59:37.707Z,610
2018-12-17T02:00:39.558Z,610.4
2018-12-17T02:01:41.991Z,610.2
2018-12-17T02:02:44.427Z,609.6
2018-12-17T02:03:46.850Z,610.2
2018-12-17T02:04:49.014Z,610.3
2018-12-17T02:05:51.442Z,610.1
2018-12-17T02:06:53.623Z,610.3
2018-12-17T02:07:55.786Z,610.3
2018-12-17T02:08:57.948Z,610.4
2018-12-17T02:10:00.361Z,610
2018-12-17T02:11:02.509Z,610.1
2018-12-17T02:12:04.936Z,609.5
2018-12-17T02:13:07.073Z,609.4
2018-12-17T02:14:08.921Z,609.4
2018-12-17T02:15:10.777Z,609.1
2018-12-17T02:16:13.214Z,608.9
2018-12-17T02:17:15.382Z,609.1
2018-12-17T02:18:17.797Z,608.8
2018-12-17T02:19:20.232Z,608.7
2018-12-17T02:20:22.644Z,608.5
2018-12-17T02:21:25.083Z,608
2018-12-17T02:22:26.967Z,608.2
2018-12-17T02:23:29.400Z,608
2018-12-17T02:24:31.262Z,607.7
2018-12-17T02:25:33.422Z,607.6
2018-12-17T02:26:35.850Z,607.8
2018-12-17T02:27:37.735Z,607.6
2018-12-17T02:28:40.172Z,608
2018-12-17T02:29:42.600Z,607.9
2018-12-17T02:30:44.196Z,607.6
2018-12-17T02:31:46.369Z,607.1
2018-12-17T02:32:48.805Z,606.8
2018-12-17T02:33:51.231Z,607.1
2018-12-17T02:34:53.402Z,607
2018-12-17T02:35:55.828Z,606.6
2018-12-17T02:36:57.711Z,606.5
2018-12-17T02:38:00.132Z,606.3
2018-12-17T02:39:02.299Z,606.2
2018-12-17T02:40:04.771Z,606.2
2018-12-17T02:41:07.198Z,606.1
2018-12-17T02:42:09.432Z,606
2018-12-17T02:43:11.846Z,606.2
2018-12-17T02:44:14.269Z,606.2
2018-12-17T02:45:16.415Z,606.1
2018-12-17T02:46:33.201Z,606.1
2018-12-17T02:47:35.645Z,606.2
2018-12-17T02:48:38.062Z,606.1
2018-12-17T02:49:40.559Z,606.1
2018-12-17T02:50:42.998Z,606.3
2018-12-17T02:51:45.418Z,606.2
2018-12-17T02:52:47.830Z,605.7
2018-12-17T02:53:50.260Z,606
2018-12-17T02:54:52.423Z,605.7
2018-12-17T02:55:54.579Z,606
2018-12-17T02:56:56.730Z,605.8
2018-12-17T02:57:59.163Z,605.5
2018-12-17T02:59:01.309Z,605.5
2018-12-17T03:00:03.774Z,605.5
2018-12-17T03:01:06.205Z,605.6
2018-12-17T03:02:08.075Z,605.7
2018-12-17T03:03:10.513Z,605.1
2018-12-17T03:04:12.401Z,604.9
2018-12-17T03:05:14.832Z,605.1
2018-12-17T03:06:16.990Z,605
2018-12-17T03:07:19.147Z,604.8
2018-12-17T03:08:21.561Z,604.8
2018-12-17T03:09:23.996Z,604.9
2018-12-17T03:10:26.419Z,604.6
2018-12-17T03:11:28.842Z,604.5
2018-12-17T03:12:31.271Z,604.3
2018-12-17T03:13:33.419Z,604.2
2018-12-17T03:14:35.563Z,604.3
2018-12-17T03:15:37.992Z,604.1
2018-12-17T03:16:39.863Z,604.1
2018-12-17T03:17:41.728Z,603.8
2018-12-17T03:18:43.322Z,603.9
2018-12-17T03:19:45.480Z,603.4
2018-12-17T03:20:47.634Z,603.6
2018-12-17T03:21:50.059Z,603.3
2018-12-17T03:22:52.489Z,603.5
2018-12-17T03:23:54.676Z,603.4
2018-12-17T03:24:57.110Z,603
2018-12-17T03:25:58.995Z,603.5
2018-12-17T03:27:01.419Z,603.4
2018-12-17T03:28:03.569Z,603.2
2018-12-17T03:29:06.001Z,603.5
2018-12-17T03:30:08.443Z,603.3
2018-12-17T03:31:10.871Z,603.7
2018-12-17T03:32:13.023Z,603.5
2018-12-17T03:33:15.446Z,603.3
2018-12-17T03:34:17.311Z,602.8
2018-12-17T03:35:19.743Z,602.5
2018-12-17T03:36:21.906Z,602.9
2018-12-17T03:37:24.059Z,601.8
2018-12-17T03:38:26.221Z,602.1
2018-12-17T03:39:28.094Z,601.7
2018-12-17T03:40:30.322Z,601.5
2018-12-17T03:41:32.733Z,601.4
2018-12-17T03:42:35.161Z,601.5
2018-12-17T03:43:37.321Z,600.9
2018-12-17T03:44:39.738Z,601
2018-12-17T03:45:41.882Z,600.8
2018-12-17T03:46:44.508Z,601.2
2018-12-17T03:47:46.631Z,600.7
2018-12-17T03:48:48.523Z,601
2018-12-17T03:49:50.969Z,600.9
2018-12-17T03:50:53.389Z,601.4
2018-12-17T03:51:55.816Z,600.5
2018-12-17T03:52:57.686Z,600.5
2018-12-17T03:53:59.854Z,600.6
2018-12-17T03:55:02.007Z,600.7
2018-12-17T03:56:04.433Z,600.2
2018-12-17T03:57:06.852Z,600.4
2018-12-17T03:58:08.995Z,600.5
2018-12-17T03:59:11.144Z,600.4
2018-12-17T04:00:13.277Z,600.3
2018-12-17T04:01:15.698Z,600.4
2018-12-17T04:02:17.010Z,600.1
2018-12-17T04:03:19.440Z,600.1
2018-12-17T04:04:21.855Z,600
2018-12-17T04:05:24.281Z,599.6
2018-12-17T04:06:26.411Z,599.9
2018-12-17T04:07:28.588Z,600.2
2018-12-17T04:08:31.020Z,599.7
2018-12-17T04:09:33.456Z,599.4
2018-12-17T04:10:35.585Z,599.2
2018-12-17T04:11:38.012Z,599.4
2018-12-17T04:12:40.441Z,599.1
2018-12-17T04:13:42.581Z,599.2
2018-12-17T04:14:44.467Z,599
2018-12-17T04:15:46.610Z,599.2
2018-12-17T04:16:49.078Z,598.5
2018-12-17T04:17:51.505Z,598.9
2018-12-17T04:18:53.365Z,598.8
2018-12-17T04:19:55.519Z,598.9
2018-12-17T04:20:57.669Z,598.8
2018-12-17T04:22:00.093Z,598
2018-12-17T04:23:02.220Z,598
2018-12-17T04:24:04.370Z,597.7
2018-12-17T04:25:06.808Z,597.3
2018-12-17T04:26:08.956Z,597.4
2018-12-17T04:27:11.383Z,597.6
2018-12-17T04:28:13.806Z,597.5
2018-12-17T04:29:16.240Z,597.3
2018-12-17T04:30:18.671Z,596.8
2018-12-17T04:31:21.102Z,596.7
2018-12-17T04:32:23.260Z,596.7
2018-12-17T04:33:25.690Z,596.4
2018-12-17T04:34:28.116Z,596.2
2018-12-17T04:35:30.531Z,596.1
2018-12-17T04:36:32.138Z,595.9
2018-12-17T04:37:34.293Z,595.8
2018-12-17T04:38:36.711Z,595.6
2018-12-17T04:39:39.142Z,595.6
2018-12-17T04:40:41.361Z,595.8
2018-12-17T04:41:43.547Z,595.7
2018-12-17T04:42:45.672Z,596
2018-12-17T04:43:47.801Z,596.2
2018-12-17T04:44:50.002Z,595.6
2018-12-17T04:45:52.432Z,595.9
2018-12-17T04:46:54.864Z,595.5
2018-12-17T04:47:56.743Z,595
2018-12-17T04:48:58.871Z,595.1
2018-12-17T04:50:00.478Z,594.7
2018-12-17T04:51:02.630Z,594.6
2018-12-17T04:52:04.783Z,594.5
2018-12-17T04:53:07.200Z,594.7
2018-12-17T04:54:09.337Z,594.3
2018-12-17T04:55:11.752Z,594.6
2018-12-17T04:56:13.897Z,594.2
2018-12-17T04:57:16.321Z,593.9
2018-12-17T04:58:18.756Z,593.8
2018-12-17T04:59:21.174Z,593.7
2018-12-17T05:00:23.579Z,594
2018-12-17T05:01:26.004Z,593.7
2018-12-17T05:02:28.468Z,594
2018-12-17T05:03:30.890Z,593.9
2018-12-17T05:04:33.048Z,593.5
2018-12-17T05:05:35.187Z,593.9
2018-12-17T05:06:37.614Z,593.9
2018-12-17T05:07:40.028Z,593.9
2018-12-17T05:08:42.467Z,593.4
2018-12-17T05:09:46.198Z,593.7
2018-12-17T05:10:48.624Z,593.1
2018-12-17T05:11:50.750Z,592.7
2018-12-17T05:12:52.894Z,592.8
2018-12-17T05:13:55.318Z,592.5
2018-12-17T05:14:57.742Z,592.2
2018-12-17T05:15:59.942Z,592.2
2018-12-17T05:17:02.153Z,591.8
2018-12-17T05:18:05.198Z,592
2018-12-17T05:19:07.632Z,591.8
2018-12-17T05:20:10.123Z,592
2018-12-17T05:21:12.264Z,591.6
2018-12-17T05:22:14.148Z,591
2018-12-17T05:23:16.312Z,591.4
2018-12-17T05:24:18.220Z,591
2018-12-17T05:25:20.650Z,591
2018-12-17T05:26:22.800Z,590.7
2018-12-17T05:27:25.227Z,590.6
2018-12-17T05:28:27.646Z,590.1
2018-12-17T05:29:30.061Z,589.6
2018-12-17T05:30:32.491Z,590
2018-12-17T05:31:34.632Z,589.6
2018-12-17T05:32:36.792Z,590
2018-12-17T05:33:39.220Z,589.8
2018-12-17T05:34:41.380Z,590
2018-12-17T05:35:43.527Z,589.8
2018-12-17T05:36:45.952Z,589.5
2018-12-17T05:37:48.119Z,589.3
2018-12-17T05:38:50.544Z,589.2
2018-12-17T05:39:52.705Z,589.3
2018-12-17T05:40:54.882Z,589.2
2018-12-17T05:41:56.754Z,589
2018-12-17T05:42:58.910Z,588.7
2018-12-17T05:44:01.365Z,589
2018-12-17T05:45:03.780Z,588.2
2018-12-17T05:46:06.216Z,588.7
2018-12-17T05:47:08.659Z,588.3
2018-12-17T05:48:11.087Z,588.2
2018-12-17T05:49:14.102Z,588.5
2018-12-17T05:50:16.531Z,588.3
2018-12-17T05:51:18.962Z,588
2018-12-17T05:52:21.464Z,588.1
2018-12-17T05:53:23.612Z,587.8
2018-12-17T05:54:25.770Z,587.7
2018-12-17T05:55:28.194Z,587
2018-12-17T05:56:30.350Z,587.4
2018-12-17T05:57:32.218Z,587.1
2018-12-17T05:58:34.381Z,587.1
2018-12-17T05:59:36.814Z,586.4
2018-12-17T06:00:38.992Z,586.5
2018-12-17T06:01:41.427Z,586.7
2018-12-17T06:02:43.850Z,586.5
2018-12-17T06:03:46.278Z,586
2018-12-17T06:04:48.692Z,585.9
2018-12-17T06:05:50.574Z,586.1
2018-12-17T06:06:52.724Z,585.4
2018-12-17T06:07:55.147Z,585.7
2018-12-17T06:08:57.613Z,585.8
2018-12-17T06:10:00.040Z,585.6
2018-12-17T06:11:02.478Z,585.4
2018-12-17T06:12:04.632Z,585.4
2018-12-17T06:13:06.778Z,585.3
2018-12-17T06:14:08.665Z,585.5
2018-12-17T06:15:11.091Z,585.1
2018-12-17T06:16:13.231Z,585.2
2018-12-17T06:17:15.656Z,585.2
2018-12-17T06:18:18.156Z,584.9
2018-12-17T06:19:20.345Z,584.2
2018-12-17T06:20:22.494Z,584.5
2018-12-17T06:21:24.932Z,584.6
2018-12-17T06:22:27.444Z,584.3
2018-12-17T06:23:29.882Z,584.3
2018-12-17T06:24:32.106Z,584.2
2018-12-17T06:25:34.552Z,584.3
2018-12-17T06:26:36.992Z,584.5
2018-12-17T06:27:40.607Z,584
2018-12-17T06:28:42.766Z,584.2
2018-12-17T06:29:44.911Z,584.2
2018-12-17T06:30:47.352Z,583.6
2018-12-17T06:31:49.789Z,583.5
2018-12-17T06:32:52.214Z,583.6
2018-12-17T06:33:54.343Z,583.4
2018-12-17T06:34:56.767Z,583.7
2018-12-17T06:35:58.956Z,583.7
2018-12-17T06:37:01.131Z,584
2018-12-17T06:38:03.611Z,583.6
2018-12-17T06:39:06.059Z,583
2018-12-17T06:41:13.485Z,582.8
2018-12-17T06:42:30.592Z,582.3
2018-12-17T06:43:32.486Z,582.3
2018-12-17T06:44:34.929Z,581.8
2018-12-17T06:45:37.372Z,582.1
2018-12-17T06:46:39.823Z,581.6
2018-12-17T06:47:42.308Z,581.4
2018-12-17T06:48:44.741Z,581.2
2018-12-17T06:49:47.266Z,580.8
2018-12-17T06:50:48.562Z,580.9
2018-12-17T06:51:51.004Z,580.6
2018-12-17T06:52:53.184Z,580.5
2018-12-17T06:53:54.784Z,580.6
2018-12-17T06:54:56.934Z,580.8
2018-12-17T06:55:59.372Z,581.1
2018-12-17T06:57:01.809Z,580.1
2018-12-17T06:58:03.692Z,579.8
2018-12-17T06:59:06.121Z,579.7
2018-12-17T07:00:08.569Z,579.7
2018-12-17T07:01:10.736Z,579.2
2018-12-17T07:02:12.912Z,579.3
2018-12-17T07:03:15.342Z,578.9
2018-12-17T07:04:17.774Z,579.3
2018-12-17T07:05:20.194Z,579.6
2018-12-17T07:06:22.623Z,579.2
2018-12-17T07:07:24.789Z,579.4
2018-12-17T07:08:27.228Z,579.1
2018-12-17T07:09:29.680Z,578.7
2018-12-17T07:10:31.861Z,578.5
2018-12-17T07:11:34.292Z,577.6
2018-12-17T07:12:36.453Z,577.7
2018-12-17T07:13:38.885Z,577.2
2018-12-17T07:14:41.036Z,577.2
2018-12-17T07:15:43.464Z,576.9
2018-12-17T07:16:45.621Z,576.8
2018-12-17T07:17:47.482Z,576.4
2018-12-17T07:18:49.371Z,576.6
2018-12-17T07:19:51.231Z,576.3
2018-12-17T07:20:53.399Z,576.5
2018-12-17T07:21:55.822Z,576
2018-12-17T07:22:58.291Z,575.8
2018-12-17T07:24:00.873Z,575.5
2018-12-17T07:25:03.311Z,575.1
2018-12-17T07:26:05.745Z,575.1
2018-12-17T07:27:07.966Z,574.8
2018-12-17T07:28:10.426Z,574.9
2018-12-17T07:29:12.932Z,574.7
2018-12-17T07:30:15.354Z,574.7
2018-12-17T07:31:17.785Z,574.4
2018-12-17T07:32:20.673Z,574.5
2018-12-17T07:33:23.099Z,574.2
2018-12-17T07:34:25.249Z,573.8
2018-12-17T07:35:27.724Z,573.7
2018-12-17T07:36:30.154Z,573.5
2018-12-17T07:37:32.277Z,573.5
2018-12-17T07:38:34.141Z,573.1
2018-12-17T07:39:35.733Z,573.1
2018-12-17T07:40:38.173Z,573.1
2018-12-17T07:41:40.599Z,573
2018-12-17T07:42:43.031Z,572.3
2018-12-17T07:43:45.177Z,572.3
2018-12-17T07:44:47.599Z,572.1
2018-12-17T07:45:49.747Z,572
2018-12-17T07:46:51.619Z,571.9
2018-12-17T07:47:53.792Z,571.7
2018-12-17T07:48:55.729Z,571.2
2018-12-17T07:49:57.880Z,571.3
2018-12-17T07:51:00.307Z,571.2
2018-12-17T07:52:02.736Z,570.7
2018-12-17T07:53:04.911Z,570.9
2018-12-17T07:54:07.056Z,570.9
2018-12-17T07:55:09.227Z,570.3
2018-12-17T07:56:11.651Z,570.4
2018-12-17T07:57:13.525Z,570
2018-12-17T07:58:15.461Z,569.9
2018-12-17T07:59:17.323Z,569.7
2018-12-17T08:00:19.756Z,569.3
2018-12-17T08:01:21.345Z,569.4
2018-12-17T08:02:23.851Z,569.2
2018-12-17T08:03:25.987Z,569.3
2018-12-17T08:04:28.422Z,569.3
2018-12-17T08:05:30.853Z,569.3
2018-12-17T08:06:32.729Z,569
2018-12-17T08:07:35.176Z,568.6
2018-12-17T08:08:37.759Z,568.4
2018-12-17T08:09:39.912Z,568.4
2018-12-17T08:10:42.066Z,568.1
2018-12-17T08:11:44.479Z,567.8
2018-12-17T08:12:46.350Z,567.5
2018-12-17T08:13:48.495Z,567.1
2018-12-17T08:14:50.951Z,567.2
2018-12-17T08:15:53.089Z,567.3
2018-12-17T08:16:55.231Z,567.2
2018-12-17T08:17:57.664Z,567.3
2018-12-17T08:18:59.823Z,567.2
2018-12-17T08:20:02.260Z,566.9
2018-12-17T08:21:04.686Z,566.6
2018-12-17T08:22:07.109Z,566.4
2018-12-17T08:23:09.261Z,566.4
2018-12-17T08:24:11.701Z,566.5
2018-12-17T08:25:14.149Z,566.7
2018-12-17T08:26:16.326Z,566.3
2018-12-17T08:27:18.481Z,566.3
2018-12-17T08:28:20.917Z,565.9
2018-12-17T08:29:23.103Z,565.9
2018-12-17T08:30:25.256Z,565.7
2018-12-17T08:31:27.407Z,565.7
2018-12-17T08:32:29.576Z,565.8
2018-12-17T08:33:31.728Z,565.4
2018-12-17T08:34:34.151Z,565.2
2018-12-17T08:35:36.574Z,565.5
2018-12-17T08:36:38.774Z,565
2018-12-17T08:37:40.932Z,565.3
2018-12-17T08:38:43.094Z,564.6
2018-12-17T08:39:45.519Z,564.6
2018-12-17T08:40:47.939Z,564
2018-12-17T08:41:50.374Z,564.5
2018-12-17T08:42:52.813Z,564.3
2018-12-17T08:43:55.027Z,564.4
2018-12-17T08:44:57.460Z,564.1
2018-12-17T08:45:59.618Z,564.1
2018-12-17T08:47:01.844Z,564
2018-12-17T08:48:04.274Z,563.7
2018-12-17T08:49:06.431Z,563.5
2018-12-17T08:50:08.851Z,563
2018-12-17T08:51:11.011Z,563.1
2018-12-17T08:52:12.623Z,562.8
2018-12-17T08:53:15.051Z,562.9
2018-12-17T08:54:17.208Z,562.8
2018-12-17T08:55:19.638Z,563
2018-12-17T08:56:21.521Z,562.6
2018-12-17T08:57:23.941Z,562.6
2018-12-17T08:58:26.372Z,562.2
2018-12-17T08:59:28.792Z,562
2018-12-17T09:00:31.219Z,562.3
2018-12-17T09:01:33.648Z,561.9
2018-12-17T09:02:35.803Z,562.3
2018-12-17T09:03:38.231Z,561.6
2018-12-17T09:04:40.657Z,561.2
2018-12-17T09:05:43.082Z,561.1
2018-12-17T09:06:45.522Z,561.5
2018-12-17T09:07:47.675Z,561.7
2018-12-17T09:08:50.107Z,560.9
2018-12-17T09:09:52.261Z,560.5
2018-12-17T09:10:54.683Z,560.5
2018-12-17T09:11:56.579Z,560.7
2018-12-17T09:12:59.011Z,560.9
2018-12-17T09:14:00.883Z,560.5
2018-12-17T09:15:02.758Z,560.6
2018-12-17T09:16:04.642Z,560.4
2018-12-17T09:17:07.056Z,560.2
2018-12-17T09:18:09.478Z,560
2018-12-17T09:19:11.902Z,559.7
2018-12-17T09:20:14.052Z,559.6
2018-12-17T09:21:16.483Z,559.5
2018-12-17T09:22:18.343Z,559.6
2018-12-17T09:23:20.498Z,559.6
2018-12-17T09:24:22.650Z,559.5
2018-12-17T09:25:24.883Z,559.5
2018-12-17T09:26:26.777Z,559.5
2018-12-17T09:27:29.192Z,559.3
2018-12-17T09:28:31.354Z,559.5
2018-12-17T09:29:33.771Z,559.5
2018-12-17T09:31:41.178Z,559.5
2018-12-17T09:32:43.612Z,559.3
2018-12-17T09:33:46.034Z,558.9
2018-12-17T09:34:48.192Z,559.3
2018-12-17T09:35:50.639Z,558.6
2018-12-17T09:36:53.071Z,559
2018-12-17T09:37:55.503Z,558.5
2018-12-17T09:38:57.939Z,558.7
2018-12-17T09:40:00.088Z,558.8
2018-12-17T09:41:02.253Z,558.8
2018-12-17T09:42:04.692Z,559.2
2018-12-17T09:43:07.111Z,558.8
2018-12-17T09:44:09.282Z,559
2018-12-17T09:45:11.175Z,558.9
2018-12-17T09:46:13.321Z,559.5
2018-12-17T09:47:15.474Z,559.6
2018-12-17T09:48:17.641Z,559.7
2018-12-17T09:49:20.058Z,559.6
2018-12-17T09:50:22.251Z,559.6
2018-12-17T09:51:24.751Z,559.7
2018-12-17T09:52:27.171Z,559.8
2018-12-17T09:53:29.309Z,560.3
2018-12-17T09:54:31.736Z,560.2
2018-12-17T09:55:33.628Z,560.3
2018-12-17T09:56:35.779Z,560.3
2018-12-17T09:57:38.211Z,560.1
2018-12-17T09:58:40.643Z,559.8
2018-12-17T09:59:57.733Z,560
2018-12-17T10:01:00.160Z,560.5
2018-12-17T10:02:02.581Z,560.6
2018-12-17T10:03:04.748Z,560.2
2018-12-17T10:04:06.893Z,560.3
2018-12-17T10:05:09.318Z,559.6
2018-12-17T10:06:11.750Z,559.8
2018-12-17T10:07:14.172Z,559.7
2018-12-17T10:08:16.057Z,559.6
2018-12-17T10:09:18.488Z,559.7
2018-12-17T10:10:20.646Z,559.6
2018-12-17T10:11:23.071Z,559.7
2018-12-17T10:12:25.520Z,559.8
2018-12-17T10:13:27.391Z,560.1
2018-12-17T10:14:29.529Z,559.9
2018-12-17T10:15:31.695Z,559.7
2018-12-17T10:16:33.949Z,559.3
2018-12-17T10:17:36.362Z,560
2018-12-17T10:18:39.225Z,559.6
2018-12-17T10:19:41.096Z,559.6
2018-12-17T10:20:43.512Z,559.6
2018-12-17T10:21:45.939Z,560
2018-12-17T10:22:48.377Z,559.9
2018-12-17T10:23:50.536Z,559.7
2018-12-17T10:24:52.710Z,559.6
2018-12-17T10:25:55.134Z,559.9
2018-12-17T10:26:57.276Z,559.8
2018-12-17T10:27:59.151Z,559.9
2018-12-17T10:29:01.036Z,560.3
2018-12-17T10:30:03.195Z,560
2018-12-17T10:31:05.428Z,560.6
2018-12-17T10:32:07.555Z,560.4
2018-12-17T10:33:09.711Z,560.2
2018-12-17T10:34:12.145Z,560.4
2018-12-17T10:35:14.574Z,560.1
2018-12-17T10:36:16.742Z,560.1
2018-12-17T10:37:18.912Z,559.8
2018-12-17T10:38:20.793Z,560.1
2018-12-17T10:39:23.213Z,560.2
2018-12-17T10:40:25.644Z,559.8
2018-12-17T10:41:27.805Z,559.5
2018-12-17T10:42:30.232Z,558.9
2018-12-17T10:43:32.658Z,558.8
2018-12-17T10:44:34.543Z,559.4
2018-12-17T10:45:36.988Z,559.2
2018-12-17T10:46:39.131Z,558.7
2018-12-17T10:47:41.575Z,559
2018-12-17T10:48:43.980Z,558.7
2018-12-17T10:49:46.402Z,558.1
2018-12-17T10:50:48.821Z,558.5
2018-12-17T10:51:51.248Z,558.8
2018-12-17T10:52:53.697Z,558.3
2018-12-17T10:53:55.838Z,558.4
2018-12-17T10:54:58.262Z,558.5
2018-12-17T10:56:00.442Z,558.5
2018-12-17T10:57:02.582Z,557.9
2018-12-17T10:58:05.008Z,557.9
2018-12-17T10:59:07.132Z,558.2
2018-12-17T11:00:09.562Z,558.4
2018-12-17T11:01:12.012Z,558.3
2018-12-17T11:02:14.169Z,558.6
2018-12-17T11:03:16.589Z,558.6
2018-12-17T11:04:18.744Z,558.3
2018-12-17T11:05:21.169Z,558.2
2018-12-17T11:06:23.601Z,558.1
2018-12-17T11:07:25.751Z,558.5
2018-12-17T11:08:28.182Z,558.4
2018-12-17T11:09:30.607Z,558.1
2018-12-17T11:10:33.020Z,558.2
2018-12-17T11:11:35.440Z,557.8
2018-12-17T11:12:37.314Z,557.5
2018-12-17T11:13:39.732Z,558
2018-12-17T11:14:42.165Z,558.1
2018-12-17T11:15:44.595Z,557.4
2018-12-17T11:16:46.754Z,558
2018-12-17T11:17:48.621Z,558.2
2018-12-17T11:18:50.791Z,558.1
2018-12-17T11:19:53.270Z,557.9
2018-12-17T11:20:55.702Z,557.8
2018-12-17T11:21:58.146Z,558.3
2018-12-17T11:23:00.571Z,557.9
2018-12-17T11:24:02.446Z,558
2018-12-17T11:25:04.886Z,557.9
2018-12-17T11:26:06.761Z,557.4
2018-12-17T11:27:09.191Z,557.2
2018-12-17T11:28:11.614Z,557.4
2018-12-17T11:29:14.042Z,557.6
2018-12-17T11:30:15.913Z,557.5
2018-12-17T11:31:17.823Z,557.4
2018-12-17T11:32:20.255Z,557.2
2018-12-17T11:33:22.693Z,556.8
2018-12-17T11:34:25.112Z,556.7
2018-12-17T11:35:27.538Z,557.1
2018-12-17T11:36:29.704Z,557
2018-12-17T11:37:32.132Z,557
2018-12-17T11:38:34.562Z,557.2
2018-12-17T11:39:36.995Z,556.8
2018-12-17T11:40:39.142Z,556.6
2018-12-17T11:41:41.566Z,556.6
2018-12-17T11:42:43.993Z,556.4
2018-12-17T11:43:46.423Z,556.2
2018-12-17T11:44:48.572Z,556.2
2018-12-17T11:45:51.016Z,556.4
2018-12-17T11:46:52.897Z,556.6
2018-12-17T11:47:55.318Z,556.4
2018-12-17T11:48:57.478Z,556.3
2018-12-17T11:49:59.630Z,556.6
2018-12-17T11:51:02.048Z,556.5
2018-12-17T11:52:04.212Z,556
2018-12-17T11:53:06.374Z,555.7
2018-12-17T11:54:08.533Z,555.8
2018-12-17T11:55:10.696Z,556.5
2018-12-17T11:56:12.855Z,556.2
2018-12-17T11:57:15.282Z,556.4
2018-12-17T11:58:17.711Z,556.5
2018-12-17T11:59:19.862Z,556.4
2018-12-17T12:00:22.295Z,556.5
2018-12-17T12:01:24.724Z,556.6
2018-12-17T12:02:26.870Z,556.1
2018-12-17T12:03:29.311Z,556.1
2018-12-17T12:04:31.833Z,556.5
2018-12-17T12:05:33.983Z,556
2018-12-17T12:06:36.144Z,556.2
2018-12-17T12:07:38.269Z,556.3
2018-12-17T12:08:40.698Z,555.7
2018-12-17T12:09:42.849Z,555.7
2018-12-17T12:10:45.292Z,556.2
2018-12-17T12:11:47.173Z,555.5
2018-12-17T12:12:49.599Z,555.5
2018-12-17T12:13:52.037Z,555.5
2018-12-17T12:14:54.192Z,555.6
2018-12-17T12:15:56.633Z,555.5
2018-12-17T12:16:58.780Z,555.5
2018-12-17T12:18:01.207Z,555.3
2018-12-17T12:19:03.657Z,555
2018-12-17T12:20:06.090Z,555
2018-12-17T12:21:08.523Z,555.2
2018-12-17T12:22:10.691Z,555.5
2018-12-17T12:23:12.842Z,555.1
2018-12-17T12:24:14.979Z,555.1
2018-12-17T12:25:17.411Z,555.3
2018-12-17T12:26:19.564Z,555.3
2018-12-17T12:27:21.988Z,555
2018-12-17T12:28:24.139Z,555
2018-12-17T12:29:26.582Z,555
2018-12-17T12:30:29.012Z,554.8
2018-12-17T12:31:31.170Z,554.8
2018-12-17T12:32:33.323Z,554.7
2018-12-17T12:33:35.747Z,554.1
2018-12-17T12:34:37.877Z,554.2
2018-12-17T12:35:40.303Z,554.6
2018-12-17T12:36:42.483Z,554.9
2018-12-17T12:37:44.667Z,554.3
2018-12-17T12:38:46.825Z,553.9
2018-12-17T12:39:48.983Z,554.2
2018-12-17T12:40:51.409Z,554.2
2018-12-17T12:41:53.562Z,554.2
2018-12-17T12:42:55.437Z,554.1
2018-12-17T12:43:57.863Z,553.8
2018-12-17T12:45:00.025Z,553.9
2018-12-17T12:46:02.160Z,554
2018-12-17T12:47:04.333Z,553.6
2018-12-17T12:48:06.762Z,554
2018-12-17T12:49:08.898Z,554
2018-12-17T12:50:11.335Z,554
2018-12-17T12:51:13.763Z,554
2018-12-17T12:52:16.193Z,554
2018-12-17T12:53:18.354Z,554.1
2018-12-17T12:54:20.522Z,554.2
2018-12-17T12:55:22.699Z,553.9
2018-12-17T12:56:25.141Z,554.2
2018-12-17T12:57:27.323Z,553.4
2018-12-17T12:58:29.481Z,553.2
2018-12-17T12:59:31.375Z,552.3
2018-12-17T13:00:33.801Z,552.3
2018-12-17T13:01:35.693Z,552.3
2018-12-17T13:02:37.847Z,552.1
2018-12-17T13:03:40.271Z,551.6
2018-12-17T13:04:42.426Z,551.4
2018-12-17T13:05:44.866Z,551.4
2018-12-17T13:06:47.025Z,551.6
2018-12-17T13:07:49.457Z,551.7
2018-12-17T13:08:51.672Z,551.3
2018-12-17T13:09:54.113Z,551.1
2018-12-17T13:10:56.533Z,550.9
2018-12-17T13:11:58.674Z,551.1
2018-12-17T13:13:01.116Z,550.9
2018-12-17T13:14:03.270Z,550.9
2018-12-17T13:15:05.409Z,551.1
2018-12-17T13:16:07.853Z,551.2
2018-12-17T13:17:10.298Z,551
2018-12-17T13:18:12.455Z,551.3
2018-12-17T13:19:14.079Z,551.4
2018-12-17T13:20:16.577Z,550.9
2018-12-17T13:21:18.455Z,551.1
2018-12-17T13:22:20.317Z,551.4
2018-12-17T13:23:22.754Z,551.3
2018-12-17T13:24:25.232Z,551.2
2018-12-17T13:25:27.390Z,551.2
2018-12-17T13:26:29.575Z,551.3
2018-12-17T13:27:31.992Z,551.2
2018-12-17T13:28:34.423Z,551.2
2018-12-17T13:29:36.584Z,550.9
2018-12-17T13:30:39.029Z,551.1
2018-12-17T13:31:41.462Z,551.1